Time;durP1;ratioP1;P1;durP2;ratioP2;P2;SDS_P1;SDS_P2;PMS_P1;PMS_P2;Temp;Humidity;BMP_temperature;BMP_pressure;BME280_temperature;BME280_humidity;BME280_pressure;Samples;Min_cycle;Max_cycle;Signal;HPM_P1;HPM_P2
2023/07/24 00:01:20;;;;;;;9.02;4.90;;;22.60;99.90;;;;;;7388418;19;20138;-71
2023/07/24 00:03:46;;;;;;;8.23;5.53;;;22.60;99.90;;;;;;7388621;19;20180;-72
2023/07/24 00:06:12;;;;;;;8.60;4.93;;;22.50;99.90;;;;;;7385220;19;20630;-72
2023/07/24 00:08:38;;;;;;;8.32;5.78;;;22.40;99.90;;;;;;7387478;19;20157;-72
2023/07/24 00:11:07;;;;;;;8.10;5.40;;;22.40;99.90;;;;;;7389771;19;20186;-71
2023/07/24 00:13:33;;;;;;;7.78;5.20;;;22.30;99.90;;;;;;7390116;19;20155;-72
2023/07/24 00:15:59;;;;;;;9.23;5.32;;;22.00;99.90;;;;;;7387191;19;20139;-72
2023/07/24 00:18:24;;;;;;;6.63;4.57;;;21.90;99.90;;;;;;7388313;19;20154;-71
2023/07/24 00:20:50;;;;;;;9.70;5.45;;;21.90;99.90;;;;;;7389741;19;20138;-71
2023/07/24 00:23:16;;;;;;;7.53;5.60;;;21.90;99.90;;;;;;7388856;19;20134;-72
2023/07/24 00:25:41;;;;;;;8.23;5.30;;;22.00;99.90;;;;;;7385104;19;20182;-72
2023/07/24 00:28:07;;;;;;;7.85;5.15;;;22.00;99.90;;;;;;7388364;19;20186;-72
2023/07/24 00:30:33;;;;;;;7.22;4.93;;;22.00;99.90;;;;;;7387214;19;20450;-72
2023/07/24 00:32:59;;;;;;;7.50;5.00;;;22.00;99.90;;;;;;7387492;19;20241;-72
2023/07/24 00:35:26;;;;;;;7.30;4.28;;;21.90;99.90;;;;;;7387473;19;20176;-72
2023/07/24 00:37:52;;;;;;;7.82;5.05;;;21.80;99.90;;;;;;7388615;19;20146;-70
2023/07/24 00:40:18;;;;;;;7.65;4.80;;;21.80;99.90;;;;;;7391073;19;20582;-71
2023/07/24 00:42:48;;;;;;;7.15;4.72;;;21.90;99.90;;;;;;7387694;19;20138;-72
2023/07/24 00:45:14;;;;;;;6.78;4.88;;;21.90;99.90;;;;;;7386274;19;20159;-71
2023/07/24 00:47:41;;;;;;;6.93;5.00;;;21.90;99.90;;;;;;7380699;19;20146;-72
2023/07/24 00:50:08;;;;;;;6.68;4.72;;;21.60;99.90;;;;;;7388254;19;20143;-71
2023/07/24 00:52:33;;;;;;;5.65;4.38;;;21.20;99.90;;;;;;7389251;19;20468;-72
2023/07/24 00:55:00;;;;;;;9.43;5.13;;;21.30;99.90;;;;;;7388045;19;20157;-72
2023/07/24 00:57:26;;;;;;;8.45;5.63;;;21.30;99.90;;;;;;7384882;19;20621;-72
2023/07/24 00:59:52;;;;;;;7.50;4.50;;;21.40;99.90;;;;;;7388921;19;20143;-73
2023/07/24 01:02:17;;;;;;;7.25;5.18;;;21.40;99.90;;;;;;7386038;19;20134;-72
2023/07/24 01:04:43;;;;;;;9.07;5.10;;;21.50;99.90;;;;;;7383007;19;20150;-72
2023/07/24 01:07:09;;;;;;;8.15;4.97;;;21.50;99.90;;;;;;7385008;19;20149;-72
2023/07/24 01:09:35;;;;;;;8.90;4.88;;;21.50;99.90;;;;;;7387964;19;20146;-72
2023/07/24 01:12:13;;;;;;;8.18;4.80;;;21.50;99.90;;;;;;7386260;19;20222;-71
2023/07/24 01:14:49;;;;;;;6.72;4.70;;;21.50;99.90;;;;;;7389143;19;20586;-72
2023/07/24 01:17:20;;;;;;;8.30;5.13;;;21.60;99.90;;;;;;7384011;19;20202;-72
2023/07/24 01:19:54;;;;;;;6.88;4.95;;;21.50;99.90;;;;;;7386342;19;20142;-73
2023/07/24 01:22:37;;;;;;;8.90;5.20;;;21.50;99.90;;;;;;7385006;19;20143;-72
2023/07/24 01:25:21;;;;;;;9.00;5.15;;;21.60;99.90;;;;;;7382959;19;20139;-72
2023/07/24 01:27:47;;;;;;;7.75;5.03;;;21.60;99.90;;;;;;7388718;19;20149;-71
2023/07/24 01:30:16;;;;;;;6.20;4.68;;;21.70;99.90;;;;;;7384637;19;20138;-72
2023/07/24 01:32:42;;;;;;;7.30;4.30;;;21.70;99.90;;;;;;7385862;19;20226;-71
2023/07/24 01:35:08;;;;;;;7.85;5.40;;;21.60;99.90;;;;;;7383580;19;20169;-72
2023/07/24 01:37:35;;;;;;;7.45;4.75;;;21.60;99.90;;;;;;7385980;19;20143;-72
2023/07/24 01:40:02;;;;;;;6.95;4.80;;;21.50;99.90;;;;;;7386236;19;20135;-72
2023/07/24 01:42:28;;;;;;;8.13;5.13;;;21.50;99.90;;;;;;7386325;19;20134;-72
2023/07/24 01:44:55;;;;;;;6.47;4.50;;;21.50;99.90;;;;;;7387258;19;20138;-72
2023/07/24 01:47:21;;;;;;;6.90;5.03;;;21.60;99.90;;;;;;7382972;19;20138;-72
2023/07/24 01:49:48;;;;;;;6.47;4.82;;;21.60;99.90;;;;;;7384753;19;20146;-71
2023/07/24 01:52:14;;;;;;;7.70;5.15;;;21.50;99.90;;;;;;7383823;19;20210;-70
2023/07/24 01:54:39;;;;;;;8.38;4.72;;;21.00;99.90;;;;;;7381585;19;20836;-71
2023/07/24 01:57:05;;;;;;;10.95;4.90;;;21.10;99.90;;;;;;7382113;19;20181;-71
2023/07/24 01:59:31;;;;;;;7.72;5.00;;;21.00;99.90;;;;;;7385691;19;20206;-72
2023/07/24 02:01:57;;;;;;;6.38;4.50;;;21.10;99.90;;;;;;7384105;19;20135;-71
2023/07/24 02:04:23;;;;;;;6.65;4.40;;;20.80;99.90;;;;;;7386022;19;20142;-71
2023/07/24 02:06:49;;;;;;;6.65;4.72;;;20.90;99.90;;;;;;7379098;19;20209;-72
2023/07/24 02:09:16;;;;;;;7.45;4.65;;;21.00;99.90;;;;;;7385803;19;20177;-72
2023/07/24 02:11:41;;;;;;;6.55;4.30;;;20.80;99.90;;;;;;7383701;19;20131;-72
2023/07/24 02:14:07;;;;;;;6.25;4.35;;;20.80;99.90;;;;;;7384125;19;20176;-71
2023/07/24 02:16:33;;;;;;;6.97;4.75;;;20.90;99.90;;;;;;7377425;19;20150;-72
2023/07/24 02:18:58;;;;;;;8.55;4.30;;;21.10;99.90;;;;;;7383367;19;20469;-71
2023/07/24 02:21:24;;;;;;;6.38;4.65;;;21.00;99.90;;;;;;7386130;19;20197;-72
2023/07/24 02:23:50;;;;;;;6.95;4.20;;;21.00;99.90;;;;;;7384003;19;20154;-72
2023/07/24 02:26:16;;;;;;;6.93;4.43;;;21.10;99.90;;;;;;7381978;19;20153;-72
2023/07/24 02:28:41;;;;;;;5.88;4.07;;;21.20;99.90;;;;;;7385155;19;20147;-71
2023/07/24 02:31:07;;;;;;;6.20;4.60;;;21.30;99.90;;;;;;7383069;19;20156;-71
2023/07/24 02:33:33;;;;;;;7.00;4.78;;;21.30;99.90;;;;;;7385260;19;20134;-72
2023/07/24 02:36:00;;;;;;;6.07;4.05;;;21.30;99.90;;;;;;7382812;19;20558;-71
2023/07/24 02:38:28;;;;;;;7.80;4.78;;;21.20;99.90;;;;;;7381530;19;20142;-71
2023/07/24 02:40:54;;;;;;;7.32;4.45;;;20.90;99.90;;;;;;7384827;19;20600;-71
2023/07/24 02:43:20;;;;;;;8.13;4.45;;;21.00;99.90;;;;;;7385864;19;20135;-71
2023/07/24 02:45:45;;;;;;;6.25;4.35;;;21.10;99.90;;;;;;7382320;19;20428;-72
2023/07/24 02:48:11;;;;;;;6.45;4.35;;;21.00;99.90;;;;;;7384373;19;20233;-72
2023/07/24 02:50:37;;;;;;;6.97;4.80;;;20.70;99.90;;;;;;7381855;19;20135;-71
2023/07/24 02:53:02;;;;;;;6.50;4.13;;;20.60;99.90;;;;;;7379123;19;20154;-71
2023/07/24 02:55:28;;;;;;;8.57;4.55;;;20.40;99.90;;;;;;7382157;19;20716;-71
2023/07/24 02:57:54;;;;;;;7.63;4.90;;;20.60;99.90;;;;;;7384612;19;20745;-71
2023/07/24 03:00:20;;;;;;;7.15;5.15;;;20.80;99.90;;;;;;7382232;19;20139;-71
2023/07/24 03:02:45;;;;;;;9.82;5.43;;;20.90;99.90;;;;;;7383067;19;20138;-71
2023/07/24 03:05:11;;;;;;;7.60;4.97;;;20.90;99.90;;;;;;7381731;19;20168;-71
2023/07/24 03:07:37;;;;;;;6.15;4.65;;;20.50;99.90;;;;;;7381998;19;20138;-70
2023/07/24 03:10:03;;;;;;;8.68;4.53;;;20.30;99.90;;;;;;7383119;19;20143;-71
2023/07/24 03:12:28;;;;;;;6.97;5.05;;;20.30;99.90;;;;;;7384976;19;20162;-72
2023/07/24 03:14:54;;;;;;;6.68;4.40;;;20.50;99.90;;;;;;7381698;19;20131;-71
2023/07/24 03:17:20;;;;;;;7.57;4.85;;;20.70;99.90;;;;;;7381204;19;20161;-72
2023/07/24 03:19:47;;;;;;;7.45;4.95;;;20.70;99.90;;;;;;7382797;19;20131;-71
2023/07/24 03:22:13;;;;;;;7.90;5.00;;;20.80;99.90;;;;;;7382656;19;20581;-71
2023/07/24 03:24:39;;;;;;;6.97;4.75;;;21.00;99.90;;;;;;7383394;19;20131;-71
2023/07/24 03:27:05;;;;;;;7.35;4.88;;;20.90;99.90;;;;;;7375711;19;20154;-71
2023/07/24 03:29:30;;;;;;;7.60;4.82;;;21.00;99.90;;;;;;7388412;19;20157;-71
2023/07/24 03:31:56;;;;;;;7.57;5.05;;;21.10;99.90;;;;;;7386238;19;20143;-71
2023/07/24 03:34:22;;;;;;;6.40;4.82;;;21.10;99.90;;;;;;7388287;19;20597;-71
2023/07/24 03:36:48;;;;;;;7.72;4.53;;;21.00;99.90;;;;;;7388918;19;20196;-71
2023/07/24 03:39:13;;;;;;;8.20;4.50;;;21.10;99.90;;;;;;7387795;19;20194;-71
2023/07/24 03:41:41;;;;;;;7.03;4.45;;;20.90;99.90;;;;;;7389215;19;20483;-72
2023/07/24 03:44:06;;;;;;;7.68;4.70;;;20.90;99.90;;;;;;7389547;19;20145;-72
2023/07/24 03:46:32;;;;;;;6.95;4.63;;;21.00;99.90;;;;;;7384401;19;20131;-72
2023/07/24 03:48:58;;;;;;;6.82;4.68;;;21.00;99.90;;;;;;7389305;19;20138;-71
2023/07/24 03:51:24;;;;;;;7.03;5.00;;;21.00;99.90;;;;;;7387730;19;20154;-72
2023/07/24 03:53:50;;;;;;;6.80;4.78;;;21.10;99.90;;;;;;7389388;19;20142;-72
2023/07/24 03:56:16;;;;;;;6.88;5.00;;;21.10;99.90;;;;;;7386391;19;20146;-71
2023/07/24 03:58:41;;;;;;;6.57;4.68;;;21.30;99.90;;;;;;7385482;19;20222;-71
2023/07/24 04:01:08;;;;;;;8.05;5.25;;;21.30;99.90;;;;;;7386721;19;20138;-71
2023/07/24 04:03:34;;;;;;;7.53;4.65;;;21.10;99.90;;;;;;7388448;19;21029;-72
2023/07/24 04:06:00;;;;;;;7.07;4.93;;;21.20;99.90;;;;;;7385618;19;20222;-72
2023/07/24 04:08:26;;;;;;;8.07;5.28;;;21.30;99.90;;;;;;7385655;19;20626;-70
2023/07/24 04:10:52;;;;;;;6.93;4.60;;;21.20;99.90;;;;;;7387388;19;20162;-71
2023/07/24 04:13:18;;;;;;;7.85;4.88;;;21.20;99.90;;;;;;7385954;19;20485;-71
2023/07/24 04:15:46;;;;;;;8.57;5.53;;;21.20;99.90;;;;;;7386638;19;20150;-72
2023/07/24 04:18:12;;;;;;;8.13;5.00;;;21.30;99.90;;;;;;7386379;19;20146;-71
2023/07/24 04:20:38;;;;;;;9.02;4.95;;;21.30;99.90;;;;;;7386756;19;20143;-72
2023/07/24 04:23:03;;;;;;;6.68;4.88;;;21.50;99.90;;;;;;7386181;19;20143;-72
2023/07/24 04:25:29;;;;;;;6.63;4.38;;;21.40;99.90;;;;;;7385101;19;20197;-72
2023/07/24 04:27:55;;;;;;;6.38;4.78;;;21.50;99.90;;;;;;7385509;19;20157;-72
2023/07/24 04:30:20;;;;;;;6.72;4.78;;;21.50;99.90;;;;;;7386855;19;20188;-72
2023/07/24 04:32:46;;;;;;;8.10;4.97;;;21.40;99.90;;;;;;7385395;19;20134;-72
2023/07/24 04:35:12;;;;;;;7.68;4.78;;;21.20;99.90;;;;;;7386049;19;20150;-72
2023/07/24 04:37:38;;;;;;;9.65;4.93;;;21.40;99.90;;;;;;7386295;19;20171;-72
2023/07/24 04:40:05;;;;;;;9.73;5.18;;;21.50;99.90;;;;;;7387976;19;20135;-71
2023/07/24 04:42:31;;;;;;;7.75;5.15;;;21.50;99.90;;;;;;7387214;19;20154;-71
2023/07/24 04:44:57;;;;;;;8.95;6.03;;;21.50;99.90;;;;;;7386080;19;20142;-72
2023/07/24 04:47:22;;;;;;;8.15;5.15;;;21.70;99.90;;;;;;7384868;19;20586;-72
2023/07/24 04:49:48;;;;;;;9.60;5.60;;;21.60;99.90;;;;;;7386324;19;20155;-72
2023/07/24 04:52:14;;;;;;;10.13;6.30;;;21.70;99.90;;;;;;7387484;19;20131;-71
2023/07/24 04:54:39;;;;;;;8.75;5.82;;;21.50;99.90;;;;;;7385825;19;20614;-71
2023/07/24 04:57:05;;;;;;;8.02;5.55;;;21.20;99.90;;;;;;7385027;19;20201;-72
2023/07/24 04:59:31;;;;;;;9.18;5.22;;;21.10;99.90;;;;;;7387669;19;20134;-71
2023/07/24 05:01:57;;;;;;;9.65;5.35;;;21.00;99.90;;;;;;7384988;19;20602;-71
2023/07/24 05:04:22;;;;;;;8.15;5.18;;;21.00;99.90;;;;;;7385476;19;20134;-70
2023/07/24 05:06:48;;;;;;;9.10;5.25;;;21.20;99.90;;;;;;7381974;19;20609;-71
2023/07/24 05:09:14;;;;;;;8.45;5.45;;;21.30;99.90;;;;;;7384815;19;20583;-71
2023/07/24 05:11:43;;;;;;;10.55;5.32;;;21.30;99.90;;;;;;7385203;19;20194;-71
2023/07/24 05:14:09;;;;;;;8.10;5.63;;;21.60;99.90;;;;;;7387199;19;20202;-72
2023/07/24 05:16:34;;;;;;;6.45;5.05;;;21.70;99.90;;;;;;7384715;19;20179;-72
2023/07/24 05:19:00;;;;;;;8.90;4.90;;;21.70;99.90;;;;;;7387602;19;20135;-71
2023/07/24 05:21:26;;;;;;;9.45;4.70;;;21.80;99.90;;;;;;7384937;19;20139;-72
2023/07/24 05:23:51;;;;;;;8.70;4.78;;;21.70;99.90;;;;;;7388194;19;20152;-71
2023/07/24 05:26:18;;;;;;;7.75;4.93;;;21.80;99.90;;;;;;7380198;19;20811;-72
2023/07/24 05:28:44;;;;;;;9.00;4.68;;;21.80;99.90;;;;;;7384221;19;20380;-72
2023/07/24 05:31:09;;;;;;;6.50;4.75;;;21.80;99.90;;;;;;7383825;19;20134;-72
2023/07/24 05:33:35;;;;;;;7.65;4.70;;;21.90;99.90;;;;;;7384288;19;20482;-72
2023/07/24 05:36:02;;;;;;;8.70;5.10;;;21.80;99.90;;;;;;7385620;19;20139;-72
2023/07/24 05:38:28;;;;;;;10.32;4.80;;;21.90;99.90;;;;;;7388581;19;20134;-71
2023/07/24 05:40:55;;;;;;;9.55;5.30;;;22.00;99.90;;;;;;7383856;19;20545;-71
2023/07/24 05:43:21;;;;;;;7.00;4.82;;;21.90;99.90;;;;;;7387300;19;20144;-72
2023/07/24 05:45:47;;;;;;;7.90;5.50;;;22.00;99.90;;;;;;7380854;19;20142;-72
2023/07/24 05:48:12;;;;;;;7.75;4.70;;;22.00;99.90;;;;;;7386292;19;20146;-72
2023/07/24 05:50:38;;;;;;;8.82;5.65;;;21.80;99.90;;;;;;7380946;19;20131;-72
2023/07/24 05:53:04;;;;;;;8.98;5.40;;;21.50;99.90;;;;;;7386399;19;20158;-72
2023/07/24 05:55:30;;;;;;;9.95;5.70;;;21.80;99.90;;;;;;7381347;19;20123;-71
2023/07/24 05:57:55;;;;;;;9.50;5.55;;;21.90;99.90;;;;;;7384569;19;20528;-71
2023/07/24 06:00:21;;;;;;;7.63;4.88;;;21.70;99.90;;;;;;7385177;19;20141;-72
2023/07/24 06:02:47;;;;;;;11.20;5.30;;;21.60;99.90;;;;;;7384486;19;20143;-72
2023/07/24 06:05:12;;;;;;;8.40;5.20;;;21.80;99.90;;;;;;7382677;19;20126;-72
2023/07/24 06:07:38;;;;;;;8.35;5.10;;;21.70;99.90;;;;;;7382971;19;20131;-72
2023/07/24 06:10:04;;;;;;;8.80;5.85;;;21.70;99.90;;;;;;7384545;19;20142;-70
2023/07/24 06:12:30;;;;;;;9.77;6.22;;;21.80;99.90;;;;;;7384485;19;20138;-71
2023/07/24 06:14:55;;;;;;;8.75;5.43;;;21.80;99.90;;;;;;7382335;19;20553;-71
2023/07/24 06:17:21;;;;;;;7.45;4.95;;;21.70;99.90;;;;;;7383505;19;20138;-71
2023/07/24 06:19:47;;;;;;;8.77;5.07;;;21.60;99.90;;;;;;7384467;19;20131;-71
2023/07/24 06:22:13;;;;;;;8.48;5.32;;;21.60;99.90;;;;;;7381885;19;20155;-74
2023/07/24 06:24:38;;;;;;;12.43;6.07;;;21.70;99.90;;;;;;7380797;19;20146;-72
2023/07/24 06:27:06;;;;;;;9.15;5.63;;;21.80;99.90;;;;;;7379140;19;20170;-72
2023/07/24 06:29:32;;;;;;;9.90;5.68;;;22.00;99.90;;;;;;7386114;19;20130;-71
2023/07/24 06:31:58;;;;;;;7.88;4.93;;;22.10;99.90;;;;;;7383643;19;20154;-71
2023/07/24 06:34:24;;;;;;;9.32;5.18;;;22.10;99.90;;;;;;7382945;19;20151;-71
2023/07/24 06:36:49;;;;;;;10.15;5.75;;;22.20;99.90;;;;;;7379714;19;20147;-72
2023/07/24 06:39:15;;;;;;;11.15;5.80;;;22.20;99.90;;;;;;7384369;19;20138;-71
2023/07/24 06:41:41;;;;;;;7.78;5.18;;;22.30;99.90;;;;;;7381730;19;20157;-72
2023/07/24 06:44:07;;;;;;;10.13;5.70;;;22.40;99.90;;;;;;7382165;19;20148;-71
2023/07/24 06:46:33;;;;;;;8.55;5.70;;;22.50;99.90;;;;;;7379812;19;20194;-72
2023/07/24 06:48:59;;;;;;;11.90;5.72;;;22.40;99.90;;;;;;7383670;19;20127;-71
2023/07/24 06:51:24;;;;;;;10.70;5.90;;;22.50;99.90;;;;;;7382222;19;20155;-73
2023/07/24 06:53:50;;;;;;;10.57;5.60;;;22.50;99.90;;;;;;7382741;19;20137;-74
2023/07/24 06:56:16;;;;;;;9.73;5.72;;;22.50;99.90;;;;;;7382427;19;20206;-75
2023/07/24 06:58:41;;;;;;;9.63;5.72;;;22.60;99.90;;;;;;7380792;19;20161;-75
2023/07/24 07:01:08;;;;;;;9.40;5.25;;;22.70;99.90;;;;;;7381302;19;20142;-79
2023/07/24 07:03:36;;;;;;;9.07;5.45;;;22.70;99.90;;;;;;7386724;19;20147;-76
2023/07/24 07:06:02;;;;;;;6.68;5.10;;;22.70;99.90;;;;;;7386041;19;20134;-75
2023/07/24 07:08:29;;;;;;;10.60;5.90;;;22.60;99.90;;;;;;7389734;19;20214;-75
2023/07/24 07:10:59;;;;;;;8.82;5.63;;;22.60;99.90;;;;;;7388657;19;20130;-76
2023/07/24 07:13:26;;;;;;;10.13;5.93;;;22.70;99.90;;;;;;7386868;19;20145;-76
2023/07/24 07:15:52;;;;;;;8.30;5.72;;;22.70;99.90;;;;;;7389389;19;20210;-76
2023/07/24 07:18:17;;;;;;;9.98;5.70;;;22.70;99.90;;;;;;7387222;19;20549;-75
2023/07/24 07:20:52;;;;;;;7.72;5.10;;;22.70;99.90;;;;;;7385414;19;20127;-77
2023/07/24 07:23:18;;;;;;;9.35;5.25;;;22.70;99.90;;;;;;7387655;19;20142;-78
2023/07/24 07:25:47;;;;;;;10.50;6.78;;;22.80;99.90;;;;;;7385225;19;20200;-75
2023/07/24 07:28:14;;;;;;;11.07;6.97;;;22.60;99.90;;;;;;7390603;19;20785;-78
2023/07/24 07:30:41;;;;;;;10.55;5.95;;;22.50;99.90;;;;;;7389025;19;20168;-75
2023/07/24 07:33:06;;;;;;;10.55;5.70;;;22.60;99.90;;;;;;7389940;19;20987;-76
2023/07/24 07:35:33;;;;;;;8.32;5.20;;;22.70;99.90;;;;;;7389078;19;20150;-76
2023/07/24 07:37:59;;;;;;;8.88;6.00;;;22.70;99.90;;;;;;7387075;19;20155;-76
2023/07/24 07:40:26;;;;;;;9.50;5.97;;;22.70;99.90;;;;;;7390082;19;20210;-70
2023/07/24 07:42:56;;;;;;;8.25;6.13;;;22.70;99.90;;;;;;7389978;19;20143;-72
2023/07/24 07:45:23;;;;;;;11.07;6.45;;;22.80;99.90;;;;;;7386732;19;20159;-72
2023/07/24 07:47:49;;;;;;;6.55;4.68;;;22.80;99.90;;;;;;7389216;19;20170;-75
2023/07/24 07:50:15;;;;;;;10.18;6.25;;;22.80;99.90;;;;;;7387192;19;20153;-74
2023/07/24 07:52:41;;;;;;;7.82;5.57;;;23.00;99.90;;;;;;7387641;19;20506;-74
2023/07/24 07:55:08;;;;;;;7.88;4.82;;;23.00;99.90;;;;;;7385768;19;20183;-74
2023/07/24 07:57:37;;;;;;;10.10;5.82;;;23.00;99.90;;;;;;7389295;19;20152;-74
2023/07/24 08:00:05;;;;;;;9.60;6.38;;;23.10;99.90;;;;;;7386706;19;20202;-75
2023/07/24 08:02:32;;;;;;;10.23;7.60;;;23.20;99.90;;;;;;7386878;19;20131;-75
2023/07/24 08:04:58;;;;;;;12.13;7.40;;;23.20;99.90;;;;;;7387017;19;20833;-75
2023/07/24 08:07:24;;;;;;;12.77;8.63;;;23.00;99.90;;;;;;7385984;19;20146;-75
2023/07/24 08:09:49;;;;;;;14.15;11.15;;;22.90;99.90;;;;;;7387136;19;20719;-75
2023/07/24 08:12:16;;;;;;;11.07;7.72;;;23.00;99.90;;;;;;7387335;19;20155;-76
2023/07/24 08:14:41;;;;;;;8.18;6.35;;;23.00;99.90;;;;;;7386853;19;20582;-75
2023/07/24 08:17:07;;;;;;;11.20;6.00;;;23.10;99.90;;;;;;7384668;19;20145;-74
2023/07/24 08:19:33;;;;;;;8.30;5.72;;;23.10;99.90;;;;;;7386230;19;20131;-75
2023/07/24 08:21:59;;;;;;;13.65;7.75;;;23.10;99.90;;;;;;7387272;19;20234;-74
2023/07/24 08:24:25;;;;;;;17.08;10.48;;;22.90;99.90;;;;;;7386325;19;20154;-75
2023/07/24 08:26:51;;;;;;;12.25;7.03;;;22.90;99.90;;;;;;7383503;19;20537;-75
2023/07/24 08:29:16;;;;;;;14.63;9.00;;;22.80;99.90;;;;;;7388524;19;20146;-75
2023/07/24 08:31:42;;;;;;;12.93;8.43;;;22.70;99.90;;;;;;7386195;19;20138;-75
2023/07/24 08:34:08;;;;;;;14.25;7.97;;;22.60;99.90;;;;;;7387283;19;20258;-76
2023/07/24 08:36:34;;;;;;;8.95;6.43;;;22.60;99.90;;;;;;7386031;19;20146;-77
2023/07/24 08:38:59;;;;;;;8.88;5.18;;;22.40;99.90;;;;;;7387215;19;20217;-77
2023/07/24 08:41:25;;;;;;;8.13;6.15;;;22.40;99.90;;;;;;7383904;19;20586;-77
2023/07/24 08:43:52;;;;;;;10.98;7.32;;;22.40;99.90;;;;;;7382944;19;20130;-78
2023/07/24 08:46:18;;;;;;;11.60;8.13;;;22.50;99.90;;;;;;7384508;19;20568;-78
2023/07/24 08:48:44;;;;;;;9.88;6.07;;;22.50;99.90;;;;;;7386315;19;20130;-78
2023/07/24 08:51:12;;;;;;;7.53;5.07;;;22.50;99.90;;;;;;7389350;19;20141;-77
2023/07/24 08:53:40;;;;;;;9.75;5.47;;;22.30;99.90;;;;;;7388315;19;20756;-76
2023/07/24 08:56:08;;;;;;;10.45;5.88;;;22.30;99.90;;;;;;7383219;19;20653;-76
2023/07/24 08:58:34;;;;;;;11.32;6.57;;;22.50;99.90;;;;;;7386026;19;20131;-77
2023/07/24 09:01:01;;;;;;;13.10;6.70;;;22.10;99.90;;;;;;7382479;19;20539;-76
2023/07/24 09:03:28;;;;;;;7.25;5.13;;;22.20;99.90;;;;;;7383237;19;20176;-76
2023/07/24 09:05:54;;;;;;;7.70;5.60;;;22.10;99.90;;;;;;7382154;19;20144;-76
2023/07/24 09:08:33;;;;;;;7.20;5.00;;;22.30;99.90;;;;;;7387804;19;20147;-76
2023/07/24 09:11:00;;;;;;;7.45;4.47;;;22.40;99.90;;;;;;7389256;19;20150;-77
2023/07/24 09:13:26;;;;;;;6.45;4.85;;;22.20;99.90;;;;;;7387209;19;20138;-76
2023/07/24 09:15:52;;;;;;;11.07;5.25;;;22.30;99.90;;;;;;7385086;19;21078;-77
2023/07/24 09:18:21;;;;;;;8.35;5.47;;;22.50;99.90;;;;;;7388161;19;20165;-75
2023/07/24 09:20:47;;;;;;;11.55;5.35;;;22.60;99.90;;;;;;7387869;19;20379;-78
2023/07/24 09:23:14;;;;;;;11.05;6.90;;;22.70;99.90;;;;;;7385436;19;20155;-76
2023/07/24 09:25:42;;;;;;;7.05;4.50;;;22.90;99.90;;;;;;7380278;19;20195;-76
2023/07/24 09:28:15;;;;;;;5.82;4.30;;;22.90;99.90;;;;;;7383909;19;20130;-73
2023/07/24 09:30:43;;;;;;;8.73;4.93;;;23.00;99.90;;;;;;7385913;19;20150;-74
2023/07/24 09:33:09;;;;;;;6.20;4.78;;;23.00;99.90;;;;;;7384427;19;20478;-75
2023/07/24 09:35:35;;;;;;;10.63;6.20;;;23.10;99.90;;;;;;7383789;19;20138;-73
2023/07/24 09:38:06;;;;;;;8.38;5.28;;;23.00;99.90;;;;;;7382471;19;20139;-72
2023/07/24 09:40:40;;;;;;;7.78;5.25;;;23.10;99.90;;;;;;7385441;19;20134;-74
2023/07/24 09:43:16;;;;;;;9.05;4.65;;;23.10;99.90;;;;;;7386205;19;20131;-73
2023/07/24 09:45:44;;;;;;;8.57;4.30;;;23.00;99.90;;;;;;7376988;19;20558;-73
2023/07/24 09:48:27;;;;;;;7.80;4.18;;;22.90;99.90;;;;;;7353691;19;20126;-73
2023/07/24 09:50:55;;;;;;;7.75;4.43;;;22.90;99.90;;;;;;7379071;19;20187;-74
2023/07/24 09:53:43;;;;;;;6.53;5.05;;;22.80;99.90;;;;;;7384524;19;20153;-72
2023/07/24 09:56:09;;;;;;;6.60;4.35;;;22.80;99.90;;;;;;7382894;19;20138;-73
2023/07/24 09:58:37;;;;;;;7.28;4.22;;;22.80;99.90;;;;;;7378310;19;20134;-74
2023/07/24 10:01:05;;;;;;;5.95;4.50;;;22.70;99.90;;;;;;7385304;19;20134;-74
2023/07/24 10:03:34;;;;;;;5.90;3.80;;;22.70;99.90;;;;;;7383451;19;20595;-73
2023/07/24 10:06:00;;;;;;;6.75;3.92;;;22.80;99.90;;;;;;7382544;19;20142;-74
2023/07/24 10:08:27;;;;;;;7.00;3.95;;;22.90;99.90;;;;;;7382210;19;20150;-73
2023/07/24 10:10:53;;;;;;;5.53;4.32;;;22.90;99.90;;;;;;7385021;19;20130;-74
2023/07/24 10:13:23;;;;;;;6.28;4.00;;;22.80;99.90;;;;;;7384764;19;20150;-74
2023/07/24 10:15:49;;;;;;;5.00;3.30;;;22.80;99.90;;;;;;7383100;19;20142;-73
2023/07/24 10:18:25;;;;;;;7.55;3.97;;;22.70;99.90;;;;;;7382056;19;20585;-73
2023/07/24 10:21:06;;;;;;;6.07;4.18;;;22.70;99.90;;;;;;7385852;19;20141;-73
2023/07/24 10:23:37;;;;;;;5.65;3.70;;;22.70;99.90;;;;;;7382008;19;21655;-75
2023/07/24 10:26:06;;;;;;;4.65;3.58;;;22.80;99.90;;;;;;7382318;19;20157;-75
2023/07/24 10:28:34;;;;;;;5.30;4.00;;;22.90;99.90;;;;;;7380426;19;20130;-76
2023/07/24 10:31:08;;;;;;;5.68;4.03;;;22.80;99.90;;;;;;7384329;19;20182;-74
2023/07/24 10:33:40;;;;;;;6.10;4.50;;;22.80;99.90;;;;;;7384334;19;20452;-76
2023/07/24 10:36:13;;;;;;;8.85;5.07;;;22.70;99.90;;;;;;7383768;19;20598;-80
2023/07/24 10:38:41;;;;;;;11.68;6.32;;;22.70;99.90;;;;;;7383682;19;20577;-80
2023/07/24 10:41:08;;;;;;;6.88;4.88;;;22.70;99.90;;;;;;7382602;19;20518;-75
2023/07/24 10:43:58;;;;;;;10.32;4.53;;;22.70;99.90;;;;;;7382558;19;20147;-76
2023/07/24 10:46:36;;;;;;;9.43;6.22;;;22.70;99.90;;;;;;7370041;19;20419;-77
2023/07/24 10:49:02;;;;;;;8.30;5.53;;;22.60;99.90;;;;;;7379823;19;20146;-79
2023/07/24 10:51:30;;;;;;;9.30;7.03;;;22.60;99.90;;;;;;7379794;19;20152;-78
2023/07/24 10:53:58;;;;;;;12.57;8.05;;;22.50;99.90;;;;;;7379954;19;20142;-77
2023/07/24 10:56:24;;;;;;;10.55;6.63;;;22.50;99.90;;;;;;7378225;19;20147;-81
2023/07/24 10:58:50;;;;;;;8.68;6.22;;;22.40;99.90;;;;;;7379229;19;20132;-79
2023/07/24 11:01:18;;;;;;;8.93;6.70;;;22.30;99.90;;;;;;7382611;19;20188;-82
2023/07/24 11:03:44;;;;;;;9.18;6.35;;;22.20;99.90;;;;;;7383069;19;20594;-75
2023/07/24 11:06:21;;;;;;;8.52;5.97;;;22.10;99.90;;;;;;7382199;19;20154;-75
2023/07/24 11:08:59;;;;;;;9.82;5.72;;;22.10;99.90;;;;;;7382511;19;20131;-76
2023/07/24 11:11:33;;;;;;;10.32;6.68;;;22.00;99.90;;;;;;7381907;19;20229;-74
2023/07/24 11:14:01;;;;;;;6.60;4.30;;;21.90;99.90;;;;;;7383279;19;20157;-73
2023/07/24 11:16:30;;;;;;;8.88;6.28;;;21.70;99.90;;;;;;7381764;19;20149;-73
2023/07/24 11:18:55;;;;;;;13.27;9.40;;;21.50;99.90;;;;;;7376802;19;20758;-74
2023/07/24 11:21:24;;;;;;;6.45;4.97;;;21.40;99.90;;;;;;7381195;19;20231;-74
2023/07/24 11:23:55;;;;;;;8.00;4.97;;;21.20;99.90;;;;;;7381149;19;20276;-73
2023/07/24 11:26:26;;;;;;;6.55;4.53;;;21.30;99.90;;;;;;7380706;19;20158;-74
2023/07/24 11:28:53;;;;;;;6.53;4.50;;;21.30;99.90;;;;;;7382907;19;20131;-74
2023/07/24 11:31:20;;;;;;;8.23;4.68;;;21.20;99.90;;;;;;7382893;19;20154;-74
2023/07/24 11:33:50;;;;;;;7.55;4.57;;;21.10;99.90;;;;;;7381468;19;20142;-74
2023/07/24 11:36:16;;;;;;;6.72;4.45;;;21.10;99.90;;;;;;7382277;19;20142;-73
2023/07/24 11:38:44;;;;;;;4.80;4.00;;;21.20;99.90;;;;;;7381721;19;20570;-73
2023/07/24 11:41:09;;;;;;;6.03;4.00;;;21.30;99.90;;;;;;7380049;19;20161;-74
2023/07/24 11:43:35;;;;;;;6.43;4.05;;;21.40;99.90;;;;;;7381237;19;20143;-73
2023/07/24 11:46:01;;;;;;;4.70;3.60;;;21.50;99.90;;;;;;7379398;19;20608;-76
2023/07/24 11:48:27;;;;;;;5.60;4.00;;;21.80;99.90;;;;;;7380188;19;20149;-73
2023/07/24 11:50:56;;;;;;;6.15;3.92;;;22.10;99.90;;;;;;7385916;19;20202;-74
2023/07/24 11:53:27;;;;;;;5.95;3.95;;;22.30;99.90;;;;;;7389942;19;20234;-73
2023/07/24 11:55:55;;;;;;;6.80;4.50;;;22.50;99.90;;;;;;7387430;19;21160;-73
2023/07/24 11:58:21;;;;;;;5.90;4.30;;;22.50;99.90;;;;;;7389000;19;20139;-72
2023/07/24 12:00:48;;;;;;;7.07;4.38;;;22.30;99.90;;;;;;7388536;19;20165;-74
2023/07/24 12:03:20;;;;;;;7.68;4.53;;;22.30;99.90;;;;;;7389363;19;20218;-74
2023/07/24 12:05:46;;;;;;;6.55;4.38;;;22.20;99.90;;;;;;7387865;19;20192;-74
2023/07/24 12:08:13;;;;;;;8.23;3.65;;;22.20;99.90;;;;;;7384443;19;20147;-73
2023/07/24 12:10:40;;;;;;;7.07;4.10;;;22.10;99.90;;;;;;7388586;19;20139;-74
2023/07/24 12:13:06;;;;;;;9.98;6.30;;;22.10;99.90;;;;;;7387381;19;20138;-74
2023/07/24 12:15:37;;;;;;;6.25;4.20;;;22.20;99.90;;;;;;7387763;19;20435;-73
2023/07/24 12:18:04;;;;;;;7.93;4.78;;;22.20;99.90;;;;;;7388126;19;20214;-73
2023/07/24 12:20:36;;;;;;;7.07;5.25;;;22.00;99.90;;;;;;7389946;19;20218;-73
2023/07/24 12:23:02;;;;;;;6.45;4.85;;;22.20;99.90;;;;;;7386736;19;20157;-73
2023/07/24 12:25:28;;;;;;;5.90;4.00;;;22.30;99.90;;;;;;7388790;19;20155;-74
2023/07/24 12:27:53;;;;;;;5.93;4.40;;;22.40;99.90;;;;;;7387395;19;20809;-73
2023/07/24 12:30:19;;;;;;;9.48;4.75;;;22.20;99.90;;;;;;7387647;19;20141;-75
2023/07/24 12:32:45;;;;;;;8.10;4.85;;;22.40;99.90;;;;;;7382675;19;20135;-73
2023/07/24 12:35:11;;;;;;;8.30;5.78;;;22.40;99.90;;;;;;7381362;19;20860;-74
2023/07/24 12:37:40;;;;;;;8.38;4.50;;;22.50;99.90;;;;;;7379930;19;20594;-73
2023/07/24 12:40:06;;;;;;;7.93;5.15;;;22.50;99.90;;;;;;7384141;19;20157;-75
2023/07/24 12:42:32;;;;;;;6.60;4.03;;;22.50;99.90;;;;;;7385935;19;20253;-73
2023/07/24 12:44:58;;;;;;;6.95;4.40;;;22.40;99.90;;;;;;7385585;19;20141;-72